Time;durP1;ratioP1;P1;durP2;ratioP2;P2;SDS_P1;SDS_P2;PMS_P1;PMS_P2;Temp;Humidity;BMP_temperature;BMP_pressure;BME280_temperature;BME280_humidity;BME280_pressure;Samples;Min_cycle;Max_cycle;Signal;HPM_P1;HPM_P2
2022/01/07 00:02:52;;;;;;;6.78;2.47;;;0.50;91.70;;;;;;6251047;28;20057;-84
2022/01/07 00:05:54;;;;;;;11.88;2.72;;;0.40;91.70;;;;;;6251791;28;20059;-84
2022/01/07 00:08:56;;;;;;;13.68;2.45;;;0.40;91.70;;;;;;6251998;28;20041;-83
2022/01/07 00:11:59;;;;;;;8.93;3.15;;;0.40;91.60;;;;;;6252950;28;20418;-85
2022/01/07 00:15:03;;;;;;;10.07;2.95;;;0.30;91.60;;;;;;6253291;28;20160;-85
2022/01/07 00:18:06;;;;;;;24.23;3.33;;;0.30;91.60;;;;;;6254470;28;20503;-85
2022/01/07 00:21:08;;;;;;;9.20;2.78;;;0.20;91.60;;;;;;6251966;28;20045;-86
2022/01/07 00:24:10;;;;;;;7.68;3.03;;;0.20;91.70;;;;;;6252048;28;20127;-84
2022/01/07 00:27:11;;;;;;;8.48;3.25;;;0.20;91.70;;;;;;6252785;28;20042;-83
2022/01/07 00:30:16;;;;;;;3.42;1.95;;;0.20;91.70;;;;;;6254917;28;20048;-84
2022/01/07 00:33:17;;;;;;;10.60;3.33;;;0.20;91.70;;;;;;6254855;28;20065;-82
2022/01/07 00:36:19;;;;;;;8.05;3.42;;;0.10;91.70;;;;;;6252617;28;20053;-85
2022/01/07 00:39:21;;;;;;;10.63;3.35;;;0.10;91.60;;;;;;6255017;28;20065;-85
2022/01/07 00:42:23;;;;;;;12.93;3.28;;;0.10;91.70;;;;;;6256154;28;20199;-85
2022/01/07 00:45:26;;;;;;;13.05;3.85;;;0.10;91.70;;;;;;6256681;28;20053;-85
2022/01/07 00:48:28;;;;;;;15.23;4.15;;;0.00;91.70;;;;;;6257728;28;20061;-85
2022/01/07 00:51:30;;;;;;;8.57;4.10;;;0.00;91.60;;;;;;6255872;28;20037;-85
2022/01/07 00:54:32;;;;;;;15.20;4.05;;;0.00;91.50;;;;;;6252935;28;20396;-85
2022/01/07 00:57:34;;;;;;;9.50;3.80;;;0.10;91.50;;;;;;6253016;28;20064;-83
2022/01/07 01:00:37;;;;;;;10.18;3.30;;;0.00;91.60;;;;;;6253415;28;20136;-85
2022/01/07 01:03:39;;;;;;;8.23;2.70;;;0.00;91.50;;;;;;6255654;28;20049;-84
2022/01/07 01:06:41;;;;;;;6.65;3.13;;;0.00;91.50;;;;;;6254782;28;20045;-84
2022/01/07 01:09:43;;;;;;;4.30;2.40;;;0.00;91.60;;;;;;6255409;28;20095;-83
2022/01/07 01:12:46;;;;;;;7.22;2.85;;;0.00;91.70;;;;;;6255930;28;20152;-83
2022/01/07 01:15:50;;;;;;;10.25;2.92;;;0.00;91.60;;;;;;6253224;28;20556;-83
2022/01/07 01:18:52;;;;;;;8.00;3.38;;;0.00;91.60;;;;;;6256247;28;20478;-84
2022/01/07 01:21:54;;;;;;;15.38;3.33;;;0.00;91.50;;;;;;6255556;28;20049;-83
2022/01/07 01:24:56;;;;;;;8.20;2.47;;;0.00;91.50;;;;;;6255393;28;20065;-84
2022/01/07 01:27:58;;;;;;;5.60;2.53;;;0.00;91.50;;;;;;6253908;28;20055;-83
2022/01/07 01:31:01;;;;;;;7.88;3.08;;;0.00;91.50;;;;;;6254780;28;20160;-83
2022/01/07 01:34:04;;;;;;;11.35;3.42;;;0.10;91.40;;;;;;6255063;28;20419;-83
2022/01/07 01:37:06;;;;;;;14.65;3.45;;;0.10;91.60;;;;;;6254895;28;20099;-82
2022/01/07 01:40:10;;;;;;;14.80;3.35;;;0.20;91.50;;;;;;6258416;28;20136;-84
2022/01/07 01:43:12;;;;;;;9.65;4.18;;;0.20;91.40;;;;;;6261185;28;20099;-84
2022/01/07 01:46:15;;;;;;;12.85;4.55;;;0.30;91.40;;;;;;6262602;28;20132;-83
2022/01/07 01:49:17;;;;;;;9.63;3.00;;;0.30;91.50;;;;;;6262009;28;20122;-84
2022/01/07 01:52:19;;;;;;;10.65;3.75;;;0.40;91.50;;;;;;6261940;28;20041;-82
2022/01/07 01:55:22;;;;;;;10.38;3.63;;;0.40;91.50;;;;;;6258580;28;20438;-83
2022/01/07 01:58:24;;;;;;;8.68;3.70;;;0.40;91.50;;;;;;6259791;28;20196;-84
2022/01/07 02:01:27;;;;;;;12.10;3.47;;;0.50;91.30;;;;;;6261178;28;20052;-84
2022/01/07 02:04:29;;;;;;;7.55;3.20;;;0.50;91.40;;;;;;6261243;28;20060;-84
2022/01/07 02:07:35;;;;;;;8.07;2.88;;;0.60;91.50;;;;;;6263257;28;20041;-83
2022/01/07 02:10:36;;;;;;;11.43;4.45;;;0.70;91.50;;;;;;6262507;28;20069;-84
2022/01/07 02:13:38;;;;;;;6.07;2.90;;;0.70;91.30;;;;;;6262103;28;20053;-84
2022/01/07 02:16:41;;;;;;;9.88;3.58;;;0.80;91.30;;;;;;6261446;28;20045;-83
2022/01/07 02:19:45;;;;;;;6.95;3.25;;;0.80;91.40;;;;;;6260869;28;20071;-84
2022/01/07 02:22:47;;;;;;;5.20;3.38;;;0.90;91.30;;;;;;6261919;28;20061;-84
2022/01/07 02:25:50;;;;;;;9.40;3.38;;;1.10;91.30;;;;;;6262325;28;20410;-83
2022/01/07 02:28:51;;;;;;;7.45;3.33;;;1.20;91.30;;;;;;6260376;28;21531;-83
2022/01/07 02:31:53;;;;;;;8.10;2.25;;;1.40;91.10;;;;;;6261870;28;20056;-84
2022/01/07 02:34:56;;;;;;;5.18;2.67;;;1.50;91.10;;;;;;6278756;28;20064;-85
2022/01/07 02:37:59;;;;;;;15.15;2.97;;;1.60;91.00;;;;;;6276340;28;20049;-85
2022/01/07 02:41:00;;;;;;;10.50;3.70;;;1.70;90.90;;;;;;6270099;28;20046;-85
2022/01/07 02:44:02;;;;;;;8.82;3.75;;;1.80;90.80;;;;;;6270001;28;20077;-84
2022/01/07 02:47:05;;;;;;;14.63;3.38;;;1.80;90.70;;;;;;6268789;28;20065;-84
2022/01/07 02:50:08;;;;;;;8.88;3.53;;;1.70;90.80;;;;;;6260031;28;20045;-85
2022/01/07 02:53:11;;;;;;;10.32;4.05;;;1.70;90.90;;;;;;6267632;28;20045;-85
2022/01/07 02:56:13;;;;;;;8.95;2.90;;;1.70;91.00;;;;;;6267349;28;20157;-84
2022/01/07 02:59:15;;;;;;;9.00;3.17;;;1.60;91.00;;;;;;6267701;28;20053;-85
2022/01/07 03:02:17;;;;;;;8.55;4.60;;;1.60;91.00;;;;;;6264530;28;20050;-84
2022/01/07 03:05:22;;;;;;;10.98;4.20;;;1.60;91.00;;;;;;6263788;28;20042;-85
2022/01/07 03:08:24;;;;;;;12.15;4.15;;;1.60;91.00;;;;;;6265388;28;20132;-85
2022/01/07 03:11:26;;;;;;;5.78;3.05;;;1.60;91.00;;;;;;6264017;28;20042;-86
2022/01/07 03:14:28;;;;;;;15.05;4.75;;;1.60;91.30;;;;;;6264396;28;20418;-86
2022/01/07 03:17:29;;;;;;;8.27;4.22;;;1.60;91.20;;;;;;6258068;28;20056;-85
2022/01/07 03:20:38;;;;;;;11.68;3.70;;;1.70;91.30;;;;;;6255703;28;20499;-86
2022/01/07 03:23:40;;;;;;;10.35;3.97;;;1.80;91.20;;;;;;6248805;28;20072;-87
2022/01/07 03:26:42;;;;;;;11.43;4.35;;;1.90;91.20;;;;;;6254142;28;20084;-85
2022/01/07 03:29:44;;;;;;;10.65;4.18;;;2.00;91.20;;;;;;6253576;28;20129;-86
2022/01/07 03:32:46;;;;;;;5.18;2.97;;;2.10;91.10;;;;;;6259384;28;20397;-85
2022/01/07 03:35:49;;;;;;;11.52;3.90;;;2.30;91.10;;;;;;6259634;28;20100;-84
2022/01/07 03:38:51;;;;;;;10.23;4.53;;;2.40;91.00;;;;;;6256834;28;20053;-84
2022/01/07 03:41:53;;;;;;;12.90;4.38;;;2.50;90.90;;;;;;6257716;28;20077;-84
2022/01/07 03:44:54;;;;;;;11.02;4.35;;;2.50;90.90;;;;;;6259078;28;20084;-84
2022/01/07 03:47:56;;;;;;;17.38;4.22;;;2.50;90.90;;;;;;6260984;28;20618;-85
2022/01/07 03:50:59;;;;;;;9.55;3.85;;;2.40;90.90;;;;;;6260591;28;20072;-85
2022/01/07 03:54:01;;;;;;;11.35;5.05;;;2.30;91.10;;;;;;6260532;28;20087;-85
2022/01/07 03:57:04;;;;;;;9.50;4.75;;;2.20;91.40;;;;;;6260957;28;20102;-84
2022/01/07 04:00:08;;;;;;;11.05;3.67;;;2.10;91.70;;;;;;6261369;28;20053;-85
2022/01/07 04:03:11;;;;;;;9.05;3.83;;;2.10;91.80;;;;;;6259263;28;20471;-85
2022/01/07 04:06:20;;;;;;;7.15;3.55;;;2.00;91.80;;;;;;6259385;28;20049;-85
2022/01/07 04:09:21;;;;;;;10.43;3.85;;;1.90;91.90;;;;;;6258407;28;20044;-85
2022/01/07 04:12:23;;;;;;;12.70;4.28;;;1.90;91.90;;;;;;6260370;28;20128;-85
2022/01/07 04:15:25;;;;;;;11.32;4.38;;;1.90;92.10;;;;;;6259063;28;20052;-85
2022/01/07 04:18:27;;;;;;;13.50;3.65;;;1.90;92.10;;;;;;6260617;28;20113;-85
2022/01/07 04:21:30;;;;;;;14.02;4.47;;;1.80;92.20;;;;;;6259344;28;20425;-87
2022/01/07 04:24:32;;;;;;;8.25;3.70;;;1.90;92.10;;;;;;6259441;28;20050;-84
2022/01/07 04:27:35;;;;;;;11.50;4.15;;;1.80;92.20;;;;;;6263148;28;20049;-85
2022/01/07 04:30:41;;;;;;;16.35;4.55;;;1.80;92.30;;;;;;6264111;28;20103;-85
2022/01/07 04:33:43;;;;;;;14.98;4.95;;;1.80;92.50;;;;;;6264323;28;20123;-86
2022/01/07 04:36:47;;;;;;;15.77;5.18;;;1.80;92.50;;;;;;6264078;28;20045;-85
2022/01/07 04:39:49;;;;;;;13.77;5.78;;;1.90;92.50;;;;;;6265968;28;20075;-85
2022/01/07 04:42:51;;;;;;;16.08;5.50;;;2.00;92.60;;;;;;6262746;28;20053;-85
2022/01/07 04:45:53;;;;;;;14.07;5.72;;;2.00;92.60;;;;;;6262861;28;20119;-85
2022/01/07 04:48:55;;;;;;;12.18;5.32;;;2.10;92.60;;;;;;6263848;28;20041;-87
2022/01/07 04:51:58;;;;;;;17.50;6.38;;;2.20;92.50;;;;;;6263886;28;20049;-87
2022/01/07 04:55:00;;;;;;;10.25;5.03;;;2.30;92.40;;;;;;6262331;28;20072;-85
2022/01/07 04:58:02;;;;;;;11.95;4.70;;;2.40;92.30;;;;;;6264420;28;20123;-85
2022/01/07 05:01:04;;;;;;;10.98;6.57;;;2.50;92.20;;;;;;6264288;28;20057;-85
2022/01/07 05:04:06;;;;;;;19.73;6.60;;;2.50;92.00;;;;;;6255489;28;20045;-86
2022/01/07 05:07:09;;;;;;;16.92;6.32;;;2.60;92.00;;;;;;6261017;28;20042;-87
2022/01/07 05:10:13;;;;;;;15.70;6.28;;;2.60;91.90;;;;;;6260991;28;20481;-86
2022/01/07 05:13:14;;;;;;;16.50;6.65;;;2.60;91.90;;;;;;6261210;28;20079;-85
2022/01/07 05:16:16;;;;;;;16.20;6.00;;;2.60;91.90;;;;;;6261815;28;20076;-86
2022/01/07 05:19:18;;;;;;;12.75;5.72;;;2.60;92.00;;;;;;6261702;28;20480;-85
2022/01/07 05:22:21;;;;;;;20.10;6.88;;;2.60;92.00;;;;;;6262330;28;20085;-85
2022/01/07 05:25:23;;;;;;;15.48;5.63;;;2.70;92.00;;;;;;6261883;28;20064;-87
2022/01/07 05:28:25;;;;;;;15.75;6.43;;;2.70;91.90;;;;;;6263230;28;20095;-86
2022/01/07 05:31:27;;;;;;;22.60;5.60;;;2.80;91.90;;;;;;6261332;28;20060;-84
2022/01/07 05:34:29;;;;;;;15.75;6.00;;;2.80;92.10;;;;;;6263087;28;20045;-85
2022/01/07 05:37:32;;;;;;;13.60;6.25;;;2.80;91.70;;;;;;6264457;28;20080;-86
2022/01/07 05:40:34;;;;;;;14.27;5.65;;;2.80;91.70;;;;;;6265051;28;20050;-86
2022/01/07 05:43:36;;;;;;;12.77;5.18;;;2.90;91.70;;;;;;6265023;28;20104;-86
2022/01/07 05:46:38;;;;;;;10.77;5.70;;;2.90;91.60;;;;;;6263705;28;20073;-86
2022/01/07 05:49:40;;;;;;;10.80;5.63;;;2.90;91.60;;;;;;6262863;28;20045;-86
2022/01/07 05:52:43;;;;;;;19.30;6.47;;;3.00;91.60;;;;;;6273083;22;20193;-80
2022/01/07 05:55:45;;;;;;;7.88;4.78;;;3.00;91.50;;;;;;6227911;28;20136;-81
2022/01/07 05:58:46;;;;;;;27.85;7.40;;;3.10;91.50;;;;;;6226825;28;20092;-80
2022/01/07 06:01:48;;;;;;;10.07;4.78;;;3.10;91.70;;;;;;6225893;28;20067;-79
2022/01/07 06:04:50;;;;;;;17.00;5.72;;;3.10;91.30;;;;;;6225814;28;20418;-80
2022/01/07 06:07:53;;;;;;;18.35;5.60;;;3.10;91.20;;;;;;6227025;28;20509;-80
2022/01/07 06:10:55;;;;;;;10.07;5.47;;;3.10;91.30;;;;;;6228724;28;20046;-83
2022/01/07 06:13:57;;;;;;;10.75;3.85;;;3.20;91.10;;;;;;6226559;28;20056;-79
2022/01/07 06:16:58;;;;;;;9.30;4.53;;;3.20;91.00;;;;;;6226429;28;20342;-80
2022/01/07 06:20:00;;;;;;;13.00;4.82;;;3.30;90.90;;;;;;6227844;28;20046;-81
2022/01/07 06:23:03;;;;;;;8.65;3.78;;;3.30;90.80;;;;;;6225927;28;20046;-81
2022/01/07 06:26:05;;;;;;;10.43;4.57;;;3.30;90.70;;;;;;6220632;28;20050;-80
2022/01/07 06:29:07;;;;;;;6.07;3.28;;;3.40;90.50;;;;;;6229762;28;20069;-80
2022/01/07 06:32:09;;;;;;;7.05;3.55;;;3.40;90.40;;;;;;6229174;28;20053;-79
2022/01/07 06:35:11;;;;;;;7.47;3.55;;;3.40;90.30;;;;;;6226389;28;20056;-78
2022/01/07 06:38:14;;;;;;;9.20;3.83;;;3.40;90.30;;;;;;6226188;28;20496;-79
2022/01/07 06:41:16;;;;;;;7.63;3.70;;;3.50;90.30;;;;;;6227098;28;20180;-80
2022/01/07 06:44:18;;;;;;;12.18;3.88;;;3.50;90.00;;;;;;6228105;28;20053;-79
2022/01/07 06:47:20;;;;;;;12.18;5.15;;;3.50;89.90;;;;;;6227239;28;20149;-79
2022/01/07 06:50:22;;;;;;;5.78;3.15;;;3.50;89.70;;;;;;6227207;28;20046;-80
2022/01/07 06:53:25;;;;;;;8.88;3.17;;;3.50;89.40;;;;;;6226892;28;20046;-79
2022/01/07 06:56:28;;;;;;;7.20;3.30;;;3.50;89.00;;;;;;6227543;28;20052;-79
2022/01/07 06:59:30;;;;;;;6.57;2.92;;;3.50;89.00;;;;;;6227151;28;20050;-78
2022/01/07 07:02:32;;;;;;;5.30;3.20;;;3.40;88.80;;;;;;6227068;28;20522;-79
2022/01/07 07:05:33;;;;;;;9.30;3.08;;;3.40;88.60;;;;;;6226319;28;20049;-78
2022/01/07 07:08:36;;;;;;;14.13;4.65;;;3.40;88.60;;;;;;6224453;28;20534;-79
2022/01/07 07:11:39;;;;;;;7.05;2.97;;;3.40;88.20;;;;;;6225805;28;20049;-82
2022/01/07 07:14:41;;;;;;;5.38;2.85;;;3.50;87.90;;;;;;6229095;28;20082;-82
2022/01/07 07:17:45;;;;;;;7.18;3.33;;;3.50;88.30;;;;;;6227130;28;20050;-82
2022/01/07 07:20:47;;;;;;;9.63;2.67;;;3.60;87.40;;;;;;6226096;28;20419;-79
2022/01/07 07:23:50;;;;;;;6.95;2.10;;;3.70;87.10;;;;;;6225943;28;20042;-81
2022/01/07 07:26:51;;;;;;;7.45;2.03;;;3.70;86.70;;;;;;6227825;28;20050;-81
2022/01/07 07:29:53;;;;;;;5.55;2.28;;;3.80;86.10;;;;;;6228251;28;20435;-82
2022/01/07 07:32:55;;;;;;;7.97;2.63;;;3.80;85.50;;;;;;6228639;28;20033;-82
2022/01/07 07:39:21;;;;;;;5.93;2.00;;;3.90;85.00;;;;;;6225228;28;20041;-79
2022/01/07 07:42:23;;;;;;;6.07;1.88;;;4.00;84.40;;;;;;6225008;28;20042;-80
2022/01/07 07:45:25;;;;;;;6.82;1.92;;;4.00;84.10;;;;;;6224643;28;20510;-80
2022/01/07 07:48:27;;;;;;;6.43;2.47;;;4.00;84.00;;;;;;6225609;28;20514;-80
2022/01/07 07:51:30;;;;;;;2.42;1.38;;;4.00;83.70;;;;;;6225818;28;20392;-80
2022/01/07 07:54:34;;;;;;;6.95;2.83;;;4.10;83.30;;;;;;6226215;28;20168;-79
2022/01/07 07:57:35;;;;;;;5.40;2.63;;;4.10;83.20;;;;;;6223864;28;20104;-80
2022/01/07 08:00:37;;;;;;;4.63;2.15;;;4.20;83.00;;;;;;6223610;28;20539;-79
2022/01/07 08:03:39;;;;;;;9.90;2.47;;;4.20;82.30;;;;;;6223781;28;20050;-78
2022/01/07 08:06:41;;;;;;;11.15;2.47;;;4.30;82.00;;;;;;6223113;28;20064;-79
2022/01/07 08:09:44;;;;;;;4.18;2.35;;;4.30;81.70;;;;;;6223293;28;20128;-79
2022/01/07 08:13:03;;;;;;;7.20;2.53;;;4.30;81.80;;;;;;6223201;28;20514;-79
2022/01/07 08:16:06;;;;;;;4.07;1.33;;;4.40;81.90;;;;;;6225074;28;20054;-79
2022/01/07 08:19:08;;;;;;;6.85;2.13;;;4.50;81.10;;;;;;6223111;28;20108;-78
2022/01/07 08:22:11;;;;;;;6.70;2.22;;;4.60;80.30;;;;;;6222846;28;20509;-78
2022/01/07 08:25:14;;;;;;;4.55;1.60;;;4.60;79.90;;;;;;6222538;28;20065;-79
2022/01/07 08:28:17;;;;;;;8.43;2.70;;;4.70;80.00;;;;;;6223475;28;20089;-79
2022/01/07 08:34:53;;;;;;;7.55;2.28;;;4.70;79.30;;;;;;6222891;28;20172;-79
2022/01/07 08:34:53;;;;;;;2.95;1.20;;;4.80;78.60;;;;;;6222526;28;20066;-79
2022/01/07 08:37:55;;;;;;;3.47;1.35;;;4.80;78.90;;;;;;6222898;28;20499;-81
2022/01/07 08:40:58;;;;;;;8.93;2.60;;;4.80;78.50;;;;;;6223214;28;20047;-82
2022/01/07 08:44:00;;;;;;;4.50;2.20;;;4.80;78.10;;;;;;6223691;28;20144;-81
2022/01/07 08:47:02;;;;;;;3.17;2.00;;;4.90;78.20;;;;;;6224526;28;20046;-81
2022/01/07 08:50:04;;;;;;;8.77;2.28;;;4.90;78.00;;;;;;6222930;28;20050;-79
2022/01/07 08:53:06;;;;;;;3.17;1.67;;;5.00;77.60;;;;;;6221942;28;20452;-79
2022/01/07 08:56:10;;;;;;;6.13;1.90;;;5.00;77.30;;;;;;6222806;28;20418;-78
2022/01/07 08:59:11;;;;;;;6.68;1.73;;;5.10;77.50;;;;;;6222237;28;20077;-81
2022/01/07 09:02:13;;;;;;;3.15;1.70;;;5.20;77.00;;;;;;6222274;28;20046;-79
2022/01/07 09:05:16;;;;;;;4.68;1.65;;;5.20;76.60;;;;;;6222248;28;20053;-78
2022/01/07 09:08:17;;;;;;;2.08;1.42;;;5.20;76.20;;;;;;6222622;28;20491;-79
2022/01/07 09:11:20;;;;;;;1.75;1.23;;;5.30;76.30;;;;;;6222342;28;20046;-79
2022/01/07 09:14:22;;;;;;;9.43;2.30;;;5.30;76.20;;;;;;6222474;28;20050;-79
2022/01/07 09:17:26;;;;;;;18.13;2.88;;;5.30;76.20;;;;;;6222509;28;20180;-79
2022/01/07 09:20:28;;;;;;;5.38;2.47;;;5.40;75.90;;;;;;6222633;28;20057;-79
2022/01/07 09:23:30;;;;;;;6.07;2.33;;;5.40;76.10;;;;;;6192778;28;20050;-79
2022/01/07 09:26:33;;;;;;;8.35;2.17;;;5.40;75.80;;;;;;6229222;28;20045;-79
2022/01/07 09:29:34;;;;;;;5.28;2.33;;;5.50;75.70;;;;;;6229172;28;20046;-79
2022/01/07 09:32:36;;;;;;;5.15;2.85;;;5.50;75.60;;;;;;6222856;28;20081;-79
2022/01/07 09:35:38;;;;;;;8.20;1.75;;;5.50;75.50;;;;;;6238138;28;20418;-78
2022/01/07 09:38:40;;;;;;;2.95;2.05;;;5.50;75.90;;;;;;6246279;28;20049;-78
2022/01/07 09:41:43;;;;;;;8.15;2.78;;;5.40;76.00;;;;;;6247460;28;20503;-78
2022/01/07 09:44:45;;;;;;;5.30;2.20;;;5.40;77.20;;;;;;6246467;28;20053;-80
2022/01/07 09:47:47;;;;;;;4.85;2.35;;;5.10;78.60;;;;;;6249159;28;20057;-79
2022/01/07 09:50:49;;;;;;;3.17;1.85;;;5.10;80.30;;;;;;6249680;28;20056;-79
2022/01/07 09:53:50;;;;;;;11.85;2.58;;;5.00;81.20;;;;;;6248087;28;20358;-80
2022/01/07 09:56:53;;;;;;;7.85;2.22;;;4.90;82.20;;;;;;6235480;28;20073;-79
2022/01/07 09:59:55;;;;;;;4.18;2.25;;;4.80;83.00;;;;;;6224143;28;20076;-76
2022/01/07 10:03:01;;;;;;;3.92;2.15;;;4.80;84.00;;;;;;6227128;28;20054;-79
2022/01/07 10:06:17;;;;;;;5.72;3.67;;;4.70;84.80;;;;;;6226844;28;20045;-80
2022/01/07 10:09:18;;;;;;;4.32;2.15;;;4.60;85.30;;;;;;6221546;28;20048;-78
2022/01/07 10:12:22;;;;;;;3.85;2.30;;;4.70;85.90;;;;;;6226403;28;20057;-80
2022/01/07 10:15:25;;;;;;;10.63;2.80;;;4.70;86.50;;;;;;6225734;28;20177;-79
2022/01/07 10:18:36;;;;;;;8.55;2.92;;;4.70;86.50;;;;;;6226037;28;20056;-78
2022/01/07 10:21:38;;;;;;;6.07;3.30;;;4.70;86.50;;;;;;6214727;28;20042;-78
2022/01/07 10:24:56;;;;;;;6.30;2.70;;;4.80;86.70;;;;;;6223089;28;20045;-78
2022/01/07 10:28:06;;;;;;;14.27;2.38;;;4.80;86.30;;;;;;6242897;28;20056;-78
2022/01/07 10:31:09;;;;;;;6.22;3.00;;;4.80;86.60;;;;;;6242175;28;20053;-78
2022/01/07 10:34:11;;;;;;;10.57;3.25;;;4.70;87.00;;;;;;6250306;28;20412;-77
2022/01/07 10:37:13;;;;;;;6.28;2.10;;;4.70;87.70;;;;;;6249743;28;20037;-78
2022/01/07 10:40:24;;;;;;;5.90;2.67;;;4.70;87.90;;;;;;6250306;28;20050;-80
2022/01/07 10:43:32;;;;;;;5.72;2.55;;;4.90;88.30;;;;;;6249635;28;20226;-78
2022/01/07 10:46:34;;;;;;;;;;;5.00;88.00;;;;;;6250731;28;20041;-80
2022/01/07 10:49:36;;;;;;;9.70;2.40;;;5.10;87.60;;;;;;6253079;28;19928;-80
2022/01/07 10:52:37;;;;;;;12.10;3.35;;;5.10;87.00;;;;;;6250542;28;20061;-80
2022/01/07 10:55:40;;;;;;;5.32;2.90;;;5.10;87.00;;;;;;6246298;28;20069;-79
2022/01/07 10:58:56;;;;;;;7.78;2.35;;;5.20;87.00;;;;;;6244742;28;20045;-80
2022/01/07 11:01:59;;;;;;;6.72;2.90;;;5.40;86.80;;;;;;6230934;28;20100;-79
2022/01/07 11:05:01;;;;;;;9.18;3.20;;;5.60;86.10;;;;;;6227345;28;20102;-80
2022/01/07 11:08:03;;;;;;;5.07;2.75;;;5.70;85.40;;;;;;6227545;28;20060;-79
2022/01/07 11:11:05;;;;;;;6.45;3.35;;;5.80;85.20;;;;;;6226644;28;20105;-79
2022/01/07 11:14:09;;;;;;;7.45;2.95;;;5.80;83.70;;;;;;6226762;28;20050;-80
2022/01/07 11:17:11;;;;;;;10.55;3.55;;;5.70;83.90;;;;;;6226758;28;20089;-80
2022/01/07 11:20:14;;;;;;;8.07;2.97;;;5.70;83.50;;;;;;6225512;28;20284;-79
2022/01/07 11:23:15;;;;;;;11.15;3.25;;;5.70;83.40;;;;;;6225506;28;20046;-80
2022/01/07 11:26:18;;;;;;;7.30;2.92;;;5.70;83.00;;;;;;6226485;28;20041;-80
2022/01/07 11:29:21;;;;;;;7.30;2.47;;;5.70;82.30;;;;;;6226923;28;20046;-80
2022/01/07 11:32:32;;;;;;;4.50;2.25;;;5.60;82.70;;;;;;6226494;28;20050;-80
2022/01/07 11:35:41;;;;;;;3.88;2.10;;;5.60;83.10;;;;;;6226021;28;20199;-79
2022/01/07 11:38:46;;;;;;;5.28;2.72;;;5.80;83.40;;;;;;6226016;28;20050;-79
2022/01/07 11:41:50;;;;;;;6.05;2.10;;;5.80;82.30;;;;;;6226188;28;20546;-80
2022/01/07 11:44:53;;;;;;;3.17;1.42;;;5.90;82.20;;;;;;6235510;28;20049;-79
2022/01/07 11:47:57;;;;;;;4.05;2.17;;;6.00;82.40;;;;;;6231129;28;20058;-80
2022/01/07 11:51:11;;;;;;;8.55;2.78;;;6.10;81.60;;;;;;6225447;28;20076;-79
2022/01/07 11:54:14;;;;;;;4.25;1.90;;;6.30;81.00;;;;;;6273659;23;20073;-79
2022/01/07 11:57:16;;;;;;;7.90;2.10;;;6.30;80.60;;;;;;6228101;28;20462;-78
2022/01/07 12:00:55;;;;;;;5.50;1.90;;;6.40;80.70;;;;;;6224619;28;20100;-79
2022/01/07 12:03:59;;;;;;;8.77;2.67;;;6.40;80.40;;;;;;6225607;28;20038;-78
2022/01/07 12:07:06;;;;;;;6.03;2.65;;;6.30;81.20;;;;;;6228878;28;20052;-79
2022/01/07 12:10:12;;;;;;;4.43;3.03;;;6.30;81.30;;;;;;6221873;28;20058;-79
2022/01/07 12:13:14;;;;;;;5.03;2.40;;;6.20;80.70;;;;;;6229635;28;20045;-79
2022/01/07 12:16:20;;;;;;;4.47;2.13;;;6.10;81.30;;;;;;6227441;28;20052;-78
2022/01/07 12:20:07;;;;;;;5.10;2.35;;;6.00;82.30;;;;;;6238463;28;21128;-79
2022/01/07 12:23:09;;;;;;;6.32;2.05;;;6.00;81.90;;;;;;6234476;28;20033;-79
2022/01/07 12:26:11;;;;;;;6.75;2.22;;;5.90;81.50;;;;;;6226669;28;20048;-79
2022/01/07 12:29:16;;;;;;;7.35;2.17;;;5.80;82.40;;;;;;6241468;28;20045;-79
2022/01/07 12:32:20;;;;;;;61.92;30.52;;;5.80;81.40;;;;;;6249360;28;20057;-79
2022/01/07 12:35:23;;;;;;;8.98;4.82;;;5.80;82.00;;;;;;6248892;28;20430;-79
2022/01/07 12:38:25;;;;;;;3.25;1.75;;;5.90;82.20;;;;;;6249817;28;20061;-79
2022/01/07 12:41:27;;;;;;;9.68;2.05;;;6.00;81.30;;;;;;6248786;28;20041;-79
2022/01/07 12:44:35;;;;;;;10.30;5.22;;;5.90;80.80;;;;;;6248619;28;20052;-79
2022/01/07 12:47:38;;;;;;;;;;;5.80;81.40;;;;;;6248845;28;20491;-80
2022/01/07 12:50:40;;;;;;;2.80;1.67;;;5.80;81.90;;;;;;6248691;28;19970;-78
2022/01/07 12:53:58;;;;;;;7.38;2.58;;;5.80;81.90;;;;;;6247219;28;20438;-78
2022/01/07 12:57:00;;;;;;;2.35;1.20;;;5.80;82.10;;;;;;6235664;28;20042;-79
2022/01/07 13:00:12;;;;;;;4.55;1.75;;;5.80;82.20;;;;;;6234075;28;20053;-80
2022/01/07 13:03:16;;;;;;;3.03;1.38;;;5.70;82.30;;;;;;6243843;28;20136;-80
2022/01/07 13:06:17;;;;;;;13.10;2.10;;;5.70;83.00;;;;;;6228942;28;20499;-79
2022/01/07 13:09:22;;;;;;;4.60;2.05;;;5.70;83.10;;;;;;6225903;28;20052;-80
2022/01/07 13:12:24;;;;;;;5.97;1.73;;;5.70;83.00;;;;;;6230027;28;20070;-80
2022/01/07 13:15:41;;;;;;;4.00;2.05;;;5.70;83.30;;;;;;6228945;28;20086;-79
2022/01/07 13:18:44;;;;;;;5.03;1.83;;;5.80;83.40;;;;;;6227562;28;20045;-80
2022/01/07 13:21:49;;;;;;;3.22;1.08;;;5.70;83.30;;;;;;6231734;28;20065;-80
2022/01/07 13:24:51;;;;;;;6.18;3.03;;;5.70;84.10;;;;;;6232119;28;20041;-79
2022/01/07 13:27:53;;;;;;;6.90;2.17;;;5.60;84.40;;;;;;6239693;28;20049;-79
2022/01/07 13:30:55;;;;;;;9.57;2.08;;;5.50;84.80;;;;;;6252591;28;20050;-79
2022/01/07 13:33:59;;;;;;;5.28;1.67;;;5.50;85.70;;;;;;6257946;28;20043;-79
2022/01/07 13:37:04;;;;;;;37.67;15.43;;;5.50;85.90;;;;;;6255464;28;20124;-79
2022/01/07 13:40:08;;;;;;;6.40;2.65;;;5.50;86.00;;;;;;6256302;28;20045;-79
2022/01/07 13:43:16;;;;;;;10.70;2.28;;;5.50;86.10;;;;;;6256613;28;20124;-80
2022/01/07 13:46:22;;;;;;;4.63;1.17;;;5.50;85.60;;;;;;6256223;28;20042;-80
2022/01/07 13:49:27;;;;;;;8.10;1.45;;;5.40;85.80;;;;;;6253392;28;20053;-80
2022/01/07 13:52:33;;;;;;;7.10;1.75;;;5.30;86.10;;;;;;6255424;28;20046;-79
2022/01/07 13:55:35;;;;;;;4.68;2.17;;;5.20;86.40;;;;;;6258281;28;20094;-82
2022/01/07 13:58:37;;;;;;;6.07;1.52;;;5.20;86.70;;;;;;6264061;28;20057;-81
2022/01/07 14:01:53;;;;;;;2.78;1.23;;;5.20;87.00;;;;;;6264505;28;20056;-80
2022/01/07 14:04:58;;;;;;;4.72;1.98;;;5.20;86.80;;;;;;6270953;28;20485;-81
2022/01/07 14:08:01;;;;;;;6.38;1.88;;;5.10;87.50;;;;;;6272785;28;20069;-80
2022/01/07 14:11:12;;;;;;;6.57;1.35;;;5.10;87.90;;;;;;6254780;28;20045;-80
2022/01/07 14:14:15;;;;;;;7.68;2.35;;;5.10;87.70;;;;;;6262688;28;20095;-80
2022/01/07 14:17:17;;;;;;;3.72;1.63;;;5.10;87.20;;;;;;6263665;28;20061;-80
2022/01/07 14:20:20;;;;;;;6.25;2.08;;;5.20;87.40;;;;;;6266676;28;20049;-84
2022/01/07 14:23:24;;;;;;;8.35;2.28;;;5.30;86.90;;;;;;6269375;28;20054;-80
2022/01/07 14:26:30;;;;;;;10.02;2.22;;;5.30;86.80;;;;;;6254249;28;20049;-82
2022/01/07 14:29:32;;;;;;;4.78;2.15;;;5.30;87.00;;;;;;6249490;28;20049;-81
2022/01/07 14:32:34;;;;;;;6.78;1.92;;;5.40;86.70;;;;;;6253068;28;20046;-79
2022/01/07 14:35:38;;;;;;;4.70;1.40;;;5.50;86.40;;;;;;6253893;28;20633;-78
2022/01/07 14:38:41;;;;;;;4.35;1.73;;;5.50;86.10;;;;;;6242075;28;20048;-79
2022/01/07 14:41:42;;;;;;;5.40;1.70;;;5.50;86.00;;;;;;6227540;28;20052;-78
2022/01/07 14:44:44;;;;;;;14.07;6.82;;;5.40;85.80;;;;;;6227143;28;20494;-79
2022/01/07 14:47:47;;;;;;;6.38;2.50;;;5.40;85.90;;;;;;6228334;28;20058;-79
2022/01/07 14:50:50;;;;;;;6.75;2.35;;;5.40;85.50;;;;;;6228090;28;20049;-77
2022/01/07 14:53:52;;;;;;;8.77;1.70;;;5.40;85.40;;;;;;6229001;28;20041;-78
2022/01/07 14:56:54;;;;;;;7.72;2.65;;;5.40;85.20;;;;;;6242458;28;20120;-78
2022/01/07 14:59:56;;;;;;;6.85;1.63;;;5.50;84.80;;;;;;6254970;28;20092;-80
2022/01/07 15:02:58;;;;;;;3.40;1.55;;;5.40;84.80;;;;;;6250822;28;20518;-79
2022/01/07 15:06:01;;;;;;;3.50;1.55;;;5.50;84.50;;;;;;6251489;28;20045;-78
2022/01/07 15:09:03;;;;;;;4.82;1.40;;;5.50;84.10;;;;;;6251298;28;20041;-79
2022/01/07 15:12:06;;;;;;;2.25;0.90;;;5.40;83.50;;;;;;6251156;28;20107;-79
2022/01/07 15:18:25;;;;;;;4.63;1.60;;;5.40;83.60;;;;;;6260435;28;20049;-79
2022/01/07 15:21:28;;;;;;;6.22;2.17;;;5.40;83.10;;;;;;6250704;28;20069;-80
2022/01/07 15:24:30;;;;;;;5.55;1.48;;;5.40;82.70;;;;;;6242203;28;20050;-79
2022/01/07 15:27:32;;;;;;;13.90;6.63;;;5.40;83.30;;;;;;6238122;28;20064;-80
2022/01/07 15:30:35;;;;;;;8.32;4.30;;;5.50;83.00;;;;;;6226923;28;20053;-79
2022/01/07 15:33:36;;;;;;;9.93;1.83;;;5.60;83.10;;;;;;6227269;28;20185;-79
2022/01/07 15:36:42;;;;;;;3.70;1.35;;;5.60;82.50;;;;;;6250692;28;20057;-79
2022/01/07 15:39:44;;;;;;;5.85;2.08;;;5.70;82.00;;;;;;6253416;28;20053;-80
2022/01/07 15:42:46;;;;;;;11.30;5.95;;;5.70;81.90;;;;;;6248398;28;20073;-79
2022/01/07 15:45:47;;;;;;;4.50;1.83;;;5.70;81.80;;;;;;6228345;28;20125;-79
2022/01/07 15:48:49;;;;;;;4.38;1.77;;;5.70;81.30;;;;;;6229101;28;20109;-80
2022/01/07 15:51:52;;;;;;;4.85;2.05;;;5.70;81.50;;;;;;6251041;28;20059;-81
2022/01/07 15:54:57;;;;;;;4.47;2.33;;;5.80;81.90;;;;;;6258385;28;20041;-80
2022/01/07 15:57:59;;;;;;;19.45;2.30;;;5.70;81.20;;;;;;6251507;28;20562;-83
2022/01/07 16:01:01;;;;;;;4.95;2.30;;;5.70;81.10;;;;;;6259855;28;20411;-81
2022/01/07 16:04:02;;;;;;;3.95;2.28;;;5.60;81.70;;;;;;6258469;28;20081;-81
2022/01/07 16:07:05;;;;;;;9.57;3.45;;;5.70;82.00;;;;;;6234881;28;20338;-80
2022/01/07 16:10:08;;;;;;;10.43;2.45;;;5.70;82.40;;;;;;6233915;28;20054;-81
2022/01/07 16:13:09;;;;;;;4.07;1.83;;;5.70;82.80;;;;;;6238954;28;20100;-80